Time;durP1;ratioP1;P1;durP2;ratioP2;P2;SDS_P1;SDS_P2;PMS_P1;PMS_P2;Temp;Humidity;BMP_temperature;BMP_pressure;BME280_temperature;BME280_humidity;BME280_pressure;Samples;Min_cycle;Max_cycle;Signal;HPM_P1;HPM_P2
2022/02/23 00:02:16;;;;;;;4.35;0.75;;;;;;;4.58;100.00;101386.28;6138779;28;20047;-77
2022/02/23 00:05:17;;;;;;;1.95;0.50;;;;;;;4.64;100.00;101388.81;6147120;28;20047;-77
2022/02/23 00:08:18;;;;;;;5.45;0.98;;;;;;;4.64;100.00;101395.75;6138899;28;20056;-77
2022/02/23 00:11:20;;;;;;;3.97;0.88;;;;;;;4.59;100.00;101401.06;6146482;29;20059;-77
2022/02/23 00:14:22;;;;;;;8.65;0.85;;;;;;;4.58;100.00;101405.38;6146510;28;20051;-77
2022/02/23 00:17:25;;;;;;;6.00;0.50;;;;;;;4.55;100.00;101409.81;6147279;28;20051;-77
2022/02/23 00:20:26;;;;;;;14.95;2.30;;;;;;;4.51;100.00;101405.53;6146195;28;20059;-77
2022/02/23 00:23:28;;;;;;;4.28;1.45;;;;;;;4.59;100.00;101427.09;6147168;28;20063;-77
2022/02/23 00:26:31;;;;;;;4.80;0.65;;;;;;;4.63;100.00;101422.66;6146821;28;20050;-77
2022/02/23 00:29:35;;;;;;;5.35;1.40;;;;;;;4.62;100.00;101421.81;6138535;28;20048;-77
2022/02/23 00:32:36;;;;;;;3.03;0.90;;;;;;;4.67;100.00;101426.91;6145925;28;20136;-77
2022/02/23 00:35:38;;;;;;;15.07;1.25;;;;;;;4.64;100.00;101437.41;6147937;28;20113;-77
2022/02/23 00:38:39;;;;;;;3.78;1.00;;;;;;;4.61;100.00;101435.72;6151069;28;20047;-77
2022/02/23 00:41:40;;;;;;;3.40;0.68;;;;;;;4.51;100.00;101453.22;6150518;28;20055;-77
2022/02/23 00:44:43;;;;;;;6.43;2.15;;;;;;;4.53;100.00;101445.38;6150716;28;20514;-77
2022/02/23 00:47:45;;;;;;;1.13;0.30;;;;;;;4.60;100.00;101453.97;6150327;28;20055;-77
2022/02/23 00:50:46;;;;;;;2.08;0.80;;;;;;;4.65;100.00;101459.94;6150139;28;20067;-77
2022/02/23 00:53:48;;;;;;;3.67;0.63;;;;;;;4.64;100.00;101453.03;6150564;28;20078;-77
2022/02/23 00:56:50;;;;;;;6.13;0.90;;;;;;;4.56;100.00;101464.41;6150372;28;20427;-77
2022/02/23 00:59:53;;;;;;;3.05;0.57;;;;;;;4.62;100.00;101470.41;6150235;28;20490;-77
2022/02/23 01:02:54;;;;;;;2.78;0.95;;;;;;;4.55;100.00;101478.31;6149762;28;20062;-77
2022/02/23 01:05:56;;;;;;;8.60;0.80;;;;;;;4.51;100.00;101476.66;6150132;28;20056;-77
2022/02/23 01:08:57;;;;;;;2.30;0.88;;;;;;;4.44;100.00;101484.59;6150360;28;20051;-77
2022/02/23 01:11:58;;;;;;;4.35;0.75;;;;;;;4.50;100.00;101487.97;6149196;28;20063;-77
2022/02/23 01:15:01;;;;;;;1.45;0.80;;;;;;;4.43;100.00;101495.88;6150336;28;20051;-77
2022/02/23 01:18:03;;;;;;;2.08;0.90;;;;;;;4.43;100.00;101488.94;6150164;28;20051;-77
2022/02/23 01:21:04;;;;;;;5.00;1.58;;;;;;;4.47;100.00;101489.75;6149290;28;20100;-76
2022/02/23 01:24:06;;;;;;;12.50;1.73;;;;;;;4.49;100.00;101499.22;6149827;28;20060;-76
2022/02/23 01:27:07;;;;;;;1.50;0.65;;;;;;;4.45;100.00;101502.78;6150067;28;20062;-76
2022/02/23 01:30:11;;;;;;;0.28;0.20;;;;;;;4.47;100.00;101513.16;6149631;28;20062;-76
2022/02/23 01:33:12;;;;;;;2.30;0.93;;;;;;;4.51;100.00;101513.09;6149175;28;20055;-77
2022/02/23 01:36:13;;;;;;;7.13;0.60;;;;;;;4.40;100.00;101517.59;6149579;28;20043;-77
2022/02/23 01:39:15;;;;;;;3.03;0.75;;;;;;;4.41;100.00;101521.09;6149884;28;20062;-76
2022/02/23 01:42:16;;;;;;;1.75;0.93;;;;;;;4.31;100.00;101516.03;6148585;28;20426;-77
2022/02/23 01:45:20;;;;;;;6.07;1.95;;;;;;;4.28;100.00;101517.81;6145500;28;20666;-76
2022/02/23 01:48:22;;;;;;;6.38;1.05;;;;;;;4.33;100.00;101529.00;6132050;28;20427;-76
2022/02/23 01:51:23;;;;;;;2.22;0.93;;;;;;;4.30;100.00;101527.28;6146036;28;20051;-76
2022/02/23 01:54:25;;;;;;;13.60;1.15;;;;;;;4.19;100.00;101530.94;6141511;29;20055;-77
2022/02/23 01:57:26;;;;;;;4.75;1.17;;;;;;;4.30;100.00;101522.06;6133921;28;20048;-77
2022/02/23 02:00:29;;;;;;;2.53;0.45;;;;;;;4.37;100.00;101535.03;6148503;28;20059;-77
2022/02/23 02:03:30;;;;;;;6.63;1.52;;;;;;;4.32;100.00;101535.94;6149111;28;20051;-77
2022/02/23 02:06:32;;;;;;;1.55;0.52;;;;;;;4.30;100.00;101550.69;6149070;28;20055;-77
2022/02/23 02:09:33;;;;;;;6.65;1.92;;;;;;;4.33;100.00;101558.47;6148745;28;20434;-76
2022/02/23 02:12:34;;;;;;;4.50;1.33;;;;;;;4.36;100.00;101560.19;6145230;28;20054;-76
2022/02/23 02:15:38;;;;;;;8.88;1.30;;;;;;;4.36;100.00;101554.97;6142929;29;20047;-76
2022/02/23 02:18:39;;;;;;;6.20;0.73;;;;;;;4.30;100.00;101562.84;6148607;28;20067;-77
2022/02/23 02:21:56;;;;;;;2.95;0.50;;;;;;;4.31;100.00;101570.66;6148277;28;20054;-76
2022/02/23 02:24:59;;;;;;;12.15;1.27;;;;;;;4.21;100.00;101579.44;6148672;28;20521;-77
2022/02/23 02:28:02;;;;;;;1.20;0.80;;;;;;;4.23;100.00;101585.50;6148822;28;20048;-76
2022/02/23 02:31:04;;;;;;;2.80;0.88;;;;;;;4.24;100.00;101589.81;6147859;28;20062;-77
2022/02/23 02:34:05;;;;;;;10.45;1.05;;;;;;;4.27;100.00;101602.81;6148532;28;20674;-77
2022/02/23 02:37:08;;;;;;;4.35;1.58;;;;;;;4.25;100.00;101620.16;6148762;28;20047;-76
2022/02/23 02:40:10;;;;;;;2.00;0.63;;;;;;;4.23;100.00;101619.34;6148192;28;20047;-76
2022/02/23 02:43:12;;;;;;;1.70;0.60;;;;;;;4.17;100.00;101627.19;6147575;28;20056;-77
2022/02/23 02:46:13;;;;;;;8.00;0.52;;;;;;;4.17;100.00;101635.00;6148176;28;20048;-76
2022/02/23 02:49:15;;;;;;;9.80;1.65;;;;;;;4.22;100.00;101647.94;6148439;28;20422;-77
2022/02/23 02:52:18;;;;;;;8.10;0.75;;;;;;;4.18;100.00;101660.16;6147359;28;20047;-77
2022/02/23 02:55:20;;;;;;;2.10;0.55;;;;;;;4.17;100.00;101658.41;6148405;28;20529;-77
2022/02/23 02:58:21;;;;;;;7.47;1.20;;;;;;;4.16;100.00;101666.25;6147578;28;20057;-76
2022/02/23 03:01:24;;;;;;;6.95;0.50;;;;;;;4.16;100.00;101682.72;6146594;28;20407;-76
2022/02/23 03:04:25;;;;;;;2.75;0.88;;;;;;;4.18;100.00;101673.16;6147784;28;20404;-77
2022/02/23 03:07:28;;;;;;;5.30;1.05;;;;;;;4.10;100.00;101669.78;6147567;28;20047;-76
2022/02/23 03:10:29;;;;;;;4.18;0.43;;;;;;;4.06;100.00;101679.34;6147333;28;20051;-76
2022/02/23 03:13:31;;;;;;;5.10;1.00;;;;;;;4.12;100.00;101677.56;6147519;28;20529;-77
2022/02/23 03:16:32;;;;;;;1.92;1.15;;;;;;;4.02;100.00;101680.25;6147703;28;20530;-76
2022/02/23 03:19:33;;;;;;;4.97;1.98;;;;;;;3.99;100.00;101685.50;6147473;28;20074;-76
2022/02/23 03:22:36;;;;;;;12.85;1.30;;;;;;;4.04;100.00;101680.25;6147336;28;20051;-77
2022/02/23 03:25:38;;;;;;;2.35;0.73;;;;;;;4.00;100.00;101683.78;6147552;28;20058;-77
2022/02/23 03:28:40;;;;;;;1.70;0.77;;;;;;;3.94;100.00;101696.81;6147663;28;20609;-76
2022/02/23 03:31:41;;;;;;;1.35;0.22;;;;;;;3.96;100.00;101706.34;6146621;28;20055;-76
2022/02/23 03:34:43;;;;;;;3.08;0.75;;;;;;;3.94;100.00;101699.44;6147271;28;20098;-76
2022/02/23 03:37:45;;;;;;;5.38;1.80;;;;;;;3.84;100.00;101709.06;6146158;28;20051;-77
2022/02/23 03:40:47;;;;;;;2.35;1.13;;;;;;;3.89;100.00;101701.22;6133563;29;20400;-76
2022/02/23 03:43:48;;;;;;;9.80;1.30;;;;;;;3.87;100.00;101706.44;6138897;28;20469;-76
2022/02/23 03:46:49;;;;;;;2.70;1.60;;;;;;;3.85;100.00;101709.94;6137201;28;20046;-76
2022/02/23 03:49:51;;;;;;;2.55;0.47;;;;;;;3.80;100.00;101707.38;6134705;28;20051;-77
2022/02/23 03:52:53;;;;;;;1.58;0.80;;;;;;;3.89;100.00;101722.88;6137947;29;20515;-76
2022/02/23 03:55:55;;;;;;;0.73;0.40;;;;;;;3.84;100.00;101727.25;6136074;28;20051;-76
2022/02/23 03:58:56;;;;;;;2.75;1.08;;;;;;;3.98;100.00;101741.00;6138788;28;20059;-76
2022/02/23 04:01:57;;;;;;;4.13;1.13;;;;;;;3.87;100.00;101736.78;6146278;28;20054;-76
2022/02/23 04:04:59;;;;;;;1.65;0.55;;;;;;;3.87;100.00;101747.19;6146723;28;20521;-76
2022/02/23 04:08:01;;;;;;;7.30;0.80;;;;;;;3.86;100.00;101755.84;6146672;28;20392;-76
2022/02/23 04:11:03;;;;;;;2.78;0.50;;;;;;;3.79;100.00;101762.84;6135400;28;20051;-76
2022/02/23 04:14:06;;;;;;;8.75;0.77;;;;;;;3.74;100.00;101767.22;6144763;29;20055;-76
2022/02/23 04:17:07;;;;;;;5.05;0.93;;;;;;;3.71;100.00;101782.84;6146536;29;20058;-76
2022/02/23 04:20:09;;;;;;;1.20;0.60;;;;;;;3.74;100.00;101778.50;6146099;28;20047;-77
2022/02/23 04:23:12;;;;;;;6.93;0.88;;;;;;;3.70;100.00;101796.72;6146296;28;20055;-75
2022/02/23 04:26:14;;;;;;;1.35;0.43;;;;;;;3.76;100.00;101781.06;6146412;28;20491;-76
2022/02/23 04:29:15;;;;;;;3.00;1.17;;;;;;;3.83;100.00;101792.28;6146413;28;20066;-76
2022/02/23 04:32:16;;;;;;;14.50;1.27;;;;;;;3.75;100.00;101788.00;6145496;28;20063;-77
2022/02/23 04:35:18;;;;;;;2.45;1.00;;;;;;;3.73;100.00;101799.31;6146506;28;20099;-76
2022/02/23 04:38:21;;;;;;;4.72;1.15;;;;;;;3.71;100.00;101795.84;6146144;28;20048;-77
2022/02/23 04:41:23;;;;;;;0.68;0.65;;;;;;;3.74;100.00;101804.47;6145827;28;20071;-76
2022/02/23 04:44:24;;;;;;;1.95;0.47;;;;;;;3.62;100.00;101812.38;6146103;28;20418;-77
2022/02/23 04:47:25;;;;;;;2.05;0.80;;;;;;;3.62;100.00;101808.91;6146101;28;20446;-76
2022/02/23 04:50:27;;;;;;;7.47;0.95;;;;;;;3.55;100.00;101808.97;6145690;28;20055;-76
2022/02/23 04:53:30;;;;;;;11.35;0.98;;;;;;;3.67;100.00;101817.53;6145847;28;20494;-76
2022/02/23 04:56:31;;;;;;;7.68;1.05;;;;;;;3.71;100.00;101835.69;6146267;28;20047;-76
2022/02/23 04:59:33;;;;;;;9.10;1.50;;;;;;;3.65;100.00;101834.88;6145927;28;20043;-76
2022/02/23 05:02:34;;;;;;;4.10;0.70;;;;;;;3.53;100.00;101843.63;6145438;28;20067;-76
2022/02/23 05:05:35;;;;;;;2.53;0.80;;;;;;;3.57;100.00;101842.72;6145939;28;20062;-76
2022/02/23 05:08:39;;;;;;;8.95;0.93;;;;;;;3.66;100.00;101844.41;6146082;28;20054;-76
2022/02/23 05:11:40;;;;;;;1.45;0.50;;;;;;;3.50;100.00;101854.91;6145351;28;20048;-76
2022/02/23 05:14:41;;;;;;;4.18;1.80;;;;;;;3.52;100.00;101866.16;6145919;28;20058;-77
2022/02/23 05:17:43;;;;;;;4.07;0.80;;;;;;;3.71;100.00;101866.88;6145814;29;20522;-76
2022/02/23 05:20:44;;;;;;;3.60;0.47;;;;;;;3.67;100.00;101877.31;6145088;28;20058;-76
2022/02/23 05:23:47;;;;;;;6.93;1.25;;;;;;;3.66;100.00;101875.59;6148260;28;20086;-76
2022/02/23 05:26:48;;;;;;;6.00;1.10;;;;;;;3.68;100.00;101879.94;6149649;28;20047;-76
2022/02/23 05:29:50;;;;;;;4.70;0.63;;;;;;;3.61;100.00;101875.63;6149571;28;20058;-76
2022/02/23 05:32:51;;;;;;;1.50;0.15;;;;;;;3.56;100.00;101891.25;6149038;28;20082;-76
2022/02/23 05:35:52;;;;;;;7.00;1.27;;;;;;;3.54;100.00;101897.31;6149689;28;20047;-77
2022/02/23 05:38:55;;;;;;;2.83;0.80;;;;;;;3.48;100.00;101898.22;6149533;28;20453;-77
2022/02/23 05:41:56;;;;;;;9.05;1.60;;;;;;;3.49;100.00;101894.75;6148917;28;20056;-77
2022/02/23 05:44:58;;;;;;;3.33;0.80;;;;;;;3.42;100.00;101902.59;6149261;28;20418;-77
2022/02/23 05:47:59;;;;;;;6.60;1.02;;;;;;;3.41;100.00;101908.69;6136168;29;20048;-76
2022/02/23 05:51:00;;;;;;;6.03;0.47;;;;;;;3.59;100.00;101910.28;6146019;29;20055;-76
2022/02/23 05:54:04;;;;;;;4.18;1.25;;;;;;;3.48;100.00;101923.34;6140392;28;20047;-76
2022/02/23 05:57:06;;;;;;;5.28;1.02;;;;;;;3.47;100.00;101921.63;6149092;28;20050;-76
2022/02/23 06:00:08;;;;;;;10.82;0.80;;;;;;;3.61;100.00;101913.75;6144884;28;20495;-76
2022/02/23 06:03:10;;;;;;;4.75;1.27;;;;;;;3.54;100.00;101911.19;6140469;28;20051;-76
2022/02/23 06:06:11;;;;;;;7.85;1.23;;;;;;;3.53;100.00;101914.66;6139195;28;20487;-76
2022/02/23 06:09:14;;;;;;;8.25;1.10;;;;;;;3.57;100.00;101925.91;6131779;28;20048;-77
2022/02/23 06:12:15;;;;;;;5.72;1.15;;;;;;;3.41;100.00;101917.34;6111584;28;20147;-76
2022/02/23 06:15:16;;;;;;;11.40;0.80;;;;;;;3.31;100.00;101928.63;6111212;29;20523;-77
2022/02/23 06:18:18;;;;;;;4.55;1.15;;;;;;;3.35;100.00;101940.72;6118302;29;20055;-76
2022/02/23 06:21:19;;;;;;;7.05;1.73;;;;;;;3.35;100.00;101943.31;6124490;29;20055;-77
2022/02/23 06:24:22;;;;;;;8.85;1.67;;;;;;;3.37;100.00;101948.53;6118801;29;20047;-76
2022/02/23 06:27:24;;;;;;;1.88;0.77;;;;;;;3.37;100.00;101945.94;6114332;29;20051;-77
2022/02/23 06:30:25;;;;;;;5.40;1.10;;;;;;;3.31;100.00;101949.41;6112374;29;20183;-77
2022/02/23 06:33:28;;;;;;;1.05;0.50;;;;;;;3.19;100.00;101960.72;6125638;28;20522;-76
2022/02/23 06:36:29;;;;;;;9.60;1.05;;;;;;;3.19;100.00;101962.44;6116218;28;20067;-76
2022/02/23 06:39:34;;;;;;;2.63;0.95;;;;;;;3.23;100.00;101967.63;6124261;28;20054;-77
2022/02/23 06:42:37;;;;;;;4.90;1.17;;;;;;;3.20;100.00;101975.44;6148198;28;20059;-76
2022/02/23 06:45:38;;;;;;;3.33;1.08;;;;;;;3.25;100.00;101973.66;6148547;29;20058;-77
2022/02/23 06:48:41;;;;;;;3.35;0.85;;;;;;;3.20;100.00;101983.22;6149160;28;20051;-77
2022/02/23 06:51:42;;;;;;;2.00;0.95;;;;;;;3.19;100.00;101988.44;6148006;28;20150;-77
2022/02/23 06:54:45;;;;;;;5.90;0.82;;;;;;;3.15;100.00;101995.34;6148289;28;20529;-76
2022/02/23 06:57:46;;;;;;;6.80;0.63;;;;;;;3.11;100.00;101990.19;6148412;28;20051;-77
2022/02/23 07:00:48;;;;;;;2.58;0.60;;;;;;;3.25;100.00;102001.38;6147861;28;20054;-77
2022/02/23 07:03:49;;;;;;;6.93;1.75;;;;;;;3.13;100.00;102010.06;6139763;28;20051;-77
2022/02/23 07:06:51;;;;;;;5.22;1.10;;;;;;;3.12;100.00;102002.28;6148476;28;20051;-77
2022/02/23 07:09:53;;;;;;;5.88;1.23;;;;;;;3.11;100.00;102006.63;6148148;28;20054;-77
2022/02/23 07:12:55;;;;;;;5.78;1.65;;;;;;;3.11;100.00;102006.63;6147581;28;20051;-76
2022/02/23 07:15:57;;;;;;;11.25;0.75;;;;;;;3.13;100.00;102006.59;6147662;28;20424;-76
2022/02/23 07:18:58;;;;;;;0.60;0.50;;;;;;;3.16;100.00;102015.25;6147634;28;20054;-76
2022/02/23 07:21:59;;;;;;;5.63;1.05;;;;;;;3.27;100.00;102015.22;6147042;28;20051;-76
2022/02/23 07:25:02;;;;;;;1.67;1.15;;;;;;;3.28;100.00;102016.97;6147556;28;20058;-76
2022/02/23 07:28:05;;;;;;;10.88;1.70;;;;;;;3.35;100.00;102020.41;6147684;28;20529;-76
2022/02/23 07:31:07;;;;;;;4.13;0.55;;;;;;;3.37;100.00;102026.47;6146990;28;20184;-76
2022/02/23 07:34:09;;;;;;;6.40;1.60;;;;;;;3.47;100.00;102035.97;6147822;28;20202;-76
2022/02/23 07:37:10;;;;;;;2.40;0.68;;;;;;;3.46;100.00;102031.66;6147316;28;20529;-76
2022/02/23 07:40:15;;;;;;;2.22;0.90;;;;;;;3.54;100.00;102040.25;6146893;28;20047;-76
2022/02/23 07:43:16;;;;;;;4.40;1.20;;;;;;;3.65;100.00;102040.25;6146660;28;20047;-77
2022/02/23 07:46:18;;;;;;;2.90;1.27;;;;;;;3.65;100.00;102041.09;6143381;28;20051;-76
2022/02/23 07:49:20;;;;;;;8.90;1.10;;;;;;;3.68;100.00;102041.09;6139295;28;20047;-76
2022/02/23 07:52:21;;;;;;;9.45;1.25;;;;;;;3.71;100.00;102050.59;6144230;28;20093;-75
2022/02/23 07:55:25;;;;;;;9.52;1.27;;;;;;;3.77;100.00;102051.47;6139760;29;20121;-76
2022/02/23 07:58:27;;;;;;;1.70;0.65;;;;;;;3.83;100.00;102045.34;6146926;28;20134;-76
2022/02/23 08:01:30;;;;;;;5.20;1.08;;;;;;;3.89;100.00;102062.66;6144200;28;20052;-76
2022/02/23 08:04:33;;;;;;;2.55;1.27;;;;;;;4.04;100.00;102058.25;6138464;28;20047;-76
2022/02/23 08:07:34;;;;;;;11.07;0.73;;;;;;;4.03;100.00;102061.72;6146916;28;20055;-76
2022/02/23 08:10:37;;;;;;;2.38;0.77;;;;;;;4.07;100.00;102063.44;6146364;28;20055;-75
2022/02/23 08:13:38;;;;;;;9.50;1.15;;;;;;;4.18;100.00;102073.78;6146461;28;20059;-75
2022/02/23 08:19:59;;;;;;;4.50;0.85;;;;;;;4.24;100.00;102080.69;6146207;29;20426;-76
2022/02/23 08:23:00;;;;;;;8.43;1.17;;;;;;;4.32;100.00;102065.91;6131521;28;20055;-75
2022/02/23 08:26:03;;;;;;;5.18;0.60;;;;;;;4.45;100.00;102070.16;6135706;29;20415;-76
2022/02/23 08:29:04;;;;;;;5.05;1.48;;;;;;;4.61;100.00;102075.25;6138615;28;20066;-75
2022/02/23 08:32:08;;;;;;;5.18;1.00;;;;;;;4.54;100.00;102079.63;6125795;28;20059;-76
2022/02/23 08:35:09;;;;;;;11.15;1.38;;;;;;;4.62;100.00;102074.38;6136656;29;20067;-77
2022/02/23 08:38:12;;;;;;;9.98;0.98;;;;;;;4.72;100.00;102079.47;6121896;29;20044;-76
2022/02/23 08:41:15;;;;;;;5.32;1.13;;;;;;;4.80;100.00;102079.44;6100135;28;20059;-77
2022/02/23 08:44:16;;;;;;;1.45;0.70;;;;;;;4.82;100.00;102077.69;6098754;28;20056;-76
2022/02/23 08:47:18;;;;;;;7.25;1.02;;;;;;;4.92;100.00;102075.88;6101885;28;20051;-76
2022/02/23 08:50:20;;;;;;;8.38;0.93;;;;;;;4.96;100.00;102078.44;6121618;28;20170;-75
2022/02/23 08:53:21;;;;;;;8.30;2.55;;;;;;;5.04;100.00;102081.84;6122283;28;20419;-75
2022/02/23 08:56:24;;;;;;;8.45;0.77;;;;;;;5.18;100.00;102086.03;6122999;28;20070;-75
2022/02/23 08:59:26;;;;;;;2.08;1.27;;;;;;;5.23;100.00;102089.50;6126105;28;20533;-75
2022/02/23 09:02:27;;;;;;;3.78;0.80;;;;;;;5.23;100.00;102087.75;6125958;28;20056;-75
2022/02/23 09:05:28;;;;;;;6.22;1.23;;;;;;;5.37;100.00;102095.44;6125924;28;20419;-76
2022/02/23 09:08:30;;;;;;;9.93;1.00;;;;;;;5.48;100.00;102092.69;6126684;28;20048;-76
2022/02/23 09:11:33;;;;;;;2.53;0.70;;;;;;;5.57;100.00;102090.00;6125326;29;20054;-75
2022/02/23 09:14:34;;;;;;;1.63;0.40;;;;;;;5.57;100.00;102095.22;6125954;28;20059;-76
2022/02/23 09:17:35;;;;;;;10.93;1.40;;;;;;;5.58;100.00;102092.56;6125896;29;20453;-75
2022/02/23 09:20:37;;;;;;;8.40;0.95;;;;;;;5.64;100.00;102094.28;6125376;28;20055;-75
2022/02/23 09:23:38;;;;;;;6.55;1.20;;;;;;;5.82;100.00;102094.06;6126229;29;20059;-76
2022/02/23 09:26:41;;;;;;;8.57;1.73;;;;;;;5.81;100.00;102091.44;6125869;28;20059;-75
2022/02/23 09:29:44;;;;;;;6.18;0.90;;;;;;;5.83;100.00;102093.19;6125665;28;20044;-76
2022/02/23 09:32:49;;;;;;;8.60;1.48;;;;;;;5.99;100.00;102106.06;6125659;29;20577;-78
2022/02/23 09:35:51;;;;;;;9.43;1.25;;;;;;;5.95;100.00;102102.63;6125901;29;20464;-77
2022/02/23 09:38:52;;;;;;;11.88;1.75;;;;;;;6.00;100.00;102107.81;6128074;29;20051;-77
2022/02/23 09:41:57;;;;;;;1.27;0.57;;;;;;;6.11;100.00;102103.28;6135555;28;20054;-75
2022/02/23 09:44:59;;;;;;;6.30;1.25;;;;;;;6.16;100.00;102103.25;6132052;28;20051;-78
2022/02/23 09:48:01;;;;;;;0.50;0.40;;;;;;;6.12;100.00;102102.41;6129846;28;20043;-75
2022/02/23 09:51:04;;;;;;;5.82;0.80;;;;;;;6.09;100.00;102100.72;6135342;28;20051;-78
2022/02/23 09:54:06;;;;;;;6.07;1.13;;;;;;;6.24;100.00;102093.56;6141866;29;20057;-77
2022/02/23 09:57:08;;;;;;;4.20;1.35;;;;;;;6.23;100.00;102102.28;6150248;28;20051;-77
2022/02/23 10:00:10;;;;;;;17.92;5.13;;;;;;;6.42;100.00;102098.53;6149790;28;20052;-78
2022/02/23 10:03:12;;;;;;;34.28;9.45;;;;;;;6.54;100.00;102087.00;6149352;28;20055;-78
2022/02/23 10:06:21;;;;;;;12.80;4.95;;;;;;;6.63;100.00;102091.25;6150100;28;20133;-77
2022/02/23 10:09:24;;;;;;;3.80;1.37;;;;;;;6.59;100.00;102095.69;6149445;28;20134;-78
2022/02/23 10:12:29;;;;;;;11.55;2.00;;;;;;;6.67;100.00;102104.22;6151118;28;20066;-79
2022/02/23 10:15:31;;;;;;;8.00;2.95;;;;;;;6.74;100.00;102100.66;6149131;28;20066;-78
2022/02/23 10:18:33;;;;;;;8.00;2.03;;;;;;;6.66;100.00;102105.13;6150520;28;20418;-77
2022/02/23 10:21:45;;;;;;;2.20;1.08;;;;;;;6.85;100.00;102108.31;6148904;28;20059;-77
2022/02/23 10:24:46;;;;;;;0.95;0.73;;;;;;;7.01;100.00;102101.97;6149792;28;20055;-78
2022/02/23 10:27:50;;;;;;;6.55;0.75;;;;;;;7.12;100.00;102109.59;6150404;28;20399;-77
2022/02/23 10:30:53;;;;;;;2.38;0.73;;;;;;;7.01;100.00;102104.56;6148839;28;20052;-77
2022/02/23 10:33:56;;;;;;;6.15;0.80;;;;;;;7.14;100.00;102112.22;6149986;28;20510;-78
2022/02/23 10:36:58;;;;;;;2.15;0.40;;;;;;;7.12;100.00;102113.06;6149477;28;20078;-77
2022/02/23 10:40:02;;;;;;;6.68;0.98;;;;;;;7.21;100.00;102114.69;6134878;28;20063;-78
2022/02/23 10:43:27;;;;;;;2.20;0.80;;;;;;;7.23;100.00;102118.16;6111361;29;20048;-78
2022/02/23 10:46:29;;;;;;;2.53;0.60;;;;;;;7.23;100.00;102117.28;6101626;29;20048;-77
2022/02/23 10:49:30;;;;;;;4.18;1.67;;;;;;;7.33;100.00;102116.22;6100782;28;20431;-77
2022/02/23 10:52:34;;;;;;;10.55;0.65;;;;;;;7.33;100.00;102111.00;6101220;28;20048;-78
2022/02/23 10:55:36;;;;;;;1.65;0.90;;;;;;;7.47;100.00;102114.22;6104465;28;20052;-81
2022/02/23 10:58:38;;;;;;;10.23;1.00;;;;;;;7.51;96.14;102133.34;6103425;28;20512;-78
2022/02/23 11:01:42;;;;;;;1.02;0.80;;;;;;;7.62;99.72;102124.38;6102146;28;20051;-78
2022/02/23 11:04:43;;;;;;;1.38;0.40;;;;;;;7.63;98.07;102126.13;6102180;28;20063;-77
2022/02/23 11:07:45;;;;;;;1.50;0.52;;;;;;;7.76;100.00;102123.25;6117741;28;20099;-78
2022/02/23 11:10:48;;;;;;;2.65;0.63;;;;;;;7.71;96.46;102128.59;6125922;29;20134;-78
2022/02/23 11:13:52;;;;;;;5.20;0.60;;;;;;;7.85;94.08;102117.84;6125910;29;20051;-78
2022/02/23 11:16:54;;;;;;;2.63;1.05;;;;;;;7.99;93.54;102113.19;6125064;28;20071;-77
2022/02/23 11:19:57;;;;;;;8.40;1.00;;;;;;;8.00;96.00;102127.16;6122840;29;20044;-76
2022/02/23 11:23:00;;;;;;;3.70;0.75;;;;;;;8.22;90.88;102111.84;6123400;29;20052;-77
2022/02/23 11:26:02;;;;;;;1.42;0.40;;;;;;;8.28;90.03;102116.97;6124317;28;20063;-78
2022/02/23 11:29:14;;;;;;;2.60;0.57;;;;;;;8.32;89.23;102109.00;6123959;29;20052;-78
2022/02/23 11:32:16;;;;;;;1.35;0.80;;;;;;;8.38;91.47;102101.03;6123151;29;20048;-76
2022/02/23 11:35:37;;;;;;;6.15;0.98;;;;;;;8.40;84.94;102106.22;6123667;29;20060;-76
2022/02/23 11:38:48;;;;;;;1.67;0.50;;;;;;;8.50;84.42;102112.16;6127953;29;20431;-78
2022/02/23 11:41:52;;;;;;;2.85;0.55;;;;;;;8.46;84.40;102111.34;6131196;28;20079;-77
2022/02/23 11:45:09;;;;;;;4.00;0.85;;;;;;;8.60;83.34;102111.91;6123529;29;20543;-78
2022/02/23 11:48:11;;;;;;;3.55;0.60;;;;;;;8.74;82.78;102115.94;6124133;29;20094;-78
2022/02/23 11:51:23;;;;;;;2.72;1.05;;;;;;;8.99;82.18;102105.72;6102160;29;20059;-80
2022/02/23 11:54:56;;;;;;;3.03;0.70;;;;;;;9.39;82.18;102106.41;6100299;29;20044;-78
2022/02/23 11:57:59;;;;;;;2.50;0.68;;;;;;;9.19;79.61;102087.72;6100069;29;20065;-77
2022/02/23 12:01:02;;;;;;;2.35;0.60;;;;;;;9.59;78.88;102087.53;6099598;28;20115;-77
2022/02/23 12:04:08;;;;;;;3.38;0.80;;;;;;;9.90;79.49;102108.53;6099499;29;20143;-77
2022/02/23 12:07:11;;;;;;;4.22;1.38;;;;;;;9.96;79.34;102096.13;6099705;28;20526;-78
2022/02/23 12:10:12;;;;;;;3.08;1.02;;;;;;;10.20;78.36;102092.75;6099628;28;20051;-78
2022/02/23 12:13:35;;;;;;;2.72;1.23;;;;;;;10.39;74.55;102096.56;6099409;28;20056;-79
2022/02/23 12:16:49;;;;;;;4.18;0.75;;;;;;;10.02;75.30;102091.53;6121023;29;20063;-81
2022/02/23 12:19:50;;;;;;;10.27;4.32;;;;;;;9.55;77.54;102098.16;6123344;29;20141;-78
2022/02/23 12:23:01;;;;;;;4.72;1.88;;;;;;;9.64;79.74;102090.03;6122918;29;20142;-79
2022/02/23 12:26:26;;;;;;;15.77;5.00;;;;;;;10.20;76.59;102078.78;6123611;29;20052;-77
2022/02/23 12:29:29;;;;;;;7.50;1.92;;;;;;;10.38;73.41;102070.34;6108201;28;20048;-76
2022/02/23 12:32:34;;;;;;;3.42;0.77;;;;;;;10.72;72.25;102066.63;6126869;29;20093;-77
2022/02/23 12:35:37;;;;;;;2.22;0.50;;;;;;;10.81;70.53;102064.59;6130553;28;20055;-77
2022/02/23 12:38:43;;;;;;;0.98;0.32;;;;;;;10.85;71.25;102055.66;6134866;28;20051;-77
2022/02/23 12:41:48;;;;;;;5.88;0.65;;;;;;;10.99;69.74;102057.84;6153282;28;20058;-76
2022/02/23 12:44:51;;;;;;;1.48;0.85;;;;;;;11.07;68.33;102052.31;6136432;28;20058;-77
2022/02/23 12:48:01;;;;;;;1.20;0.80;;;;;;;11.07;68.98;102049.69;6142273;28;20051;-77
2022/02/23 12:51:04;;;;;;;4.25;0.80;;;;;;;11.10;68.51;102049.59;6143788;29;20051;-78
2022/02/23 12:54:08;;;;;;;1.30;0.70;;;;;;;11.02;67.97;102036.69;6140735;28;20058;-76
2022/02/23 12:57:09;;;;;;;0.90;0.60;;;;;;;10.65;65.83;102052.84;6138384;28;20150;-76
2022/02/23 13:00:12;;;;;;;3.25;1.80;;;;;;;10.49;66.33;102051.59;6152448;29;20073;-76
2022/02/23 13:03:15;;;;;;;3.80;1.83;;;;;;;10.65;64.25;102039.69;6153369;28;20055;-78
2022/02/23 13:06:16;;;;;;;1.63;0.50;;;;;;;10.79;63.63;102045.34;6154155;28;20062;-78
2022/02/23 13:09:21;;;;;;;6.68;0.50;;;;;;;10.85;65.28;102036.38;6154156;28;20055;-77
2022/02/23 13:12:29;;;;;;;6.15;0.82;;;;;;;10.86;64.30;102028.47;6150191;28;20074;-79
2022/02/23 13:15:30;;;;;;;3.63;0.60;;;;;;;10.79;65.26;102021.69;6135328;29;20048;-78
2022/02/23 13:18:38;;;;;;;7.32;0.70;;;;;;;10.42;68.18;102027.31;6129880;28;20056;-77
2022/02/23 13:21:46;;;;;;;2.25;0.65;;;;;;;10.32;65.80;102024.13;6129383;29;20048;-77
2022/02/23 13:24:50;;;;;;;4.55;0.50;;;;;;;10.51;64.48;102023.53;6130352;29;20047;-80
2022/02/23 13:27:51;;;;;;;2.03;0.63;;;;;;;10.88;61.92;102034.53;6130272;29;20055;-79
2022/02/23 13:30:56;;;;;;;2.75;0.93;;;;;;;10.96;60.29;102012.38;6129572;29;20488;-77
2022/02/23 13:34:24;;;;;;;3.00;1.17;;;;;;;11.10;64.27;102003.09;6130321;29;20044;-77
2022/02/23 13:37:27;;;;;;;1.13;0.75;;;;;;;11.33;64.15;102004.88;6129631;29;20083;-75
2022/02/23 13:40:29;;;;;;;1.10;0.43;;;;;;;11.34;62.69;102003.09;6147085;29;20391;-75
2022/02/23 13:43:35;;;;;;;2.80;0.55;;;;;;;11.38;62.75;101995.03;6151159;28;20055;-76
2022/02/23 13:46:39;;;;;;;2.45;0.57;;;;;;;11.40;62.07;101989.75;6150102;28;20074;-77
2022/02/23 13:50:00;;;;;;;1.63;0.70;;;;;;;11.46;62.31;101993.91;6150908;28;20119;-72
2022/02/23 13:53:05;;;;;;;1.35;0.57;;;;;;;11.12;61.87;101980.19;6144409;28;20054;-78
2022/02/23 13:56:11;;;;;;;4.47;0.40;;;;;;;10.96;63.55;101984.28;6125964;29;20542;-78
2022/02/23 13:59:16;;;;;;;0.50;0.50;;;;;;;10.90;61.51;101979.22;6125661;29;20138;-77
2022/02/23 14:02:18;;;;;;;0.30;0.30;;;;;;;11.18;61.32;101981.78;6125462;29;20058;-77
2022/02/23 14:05:25;;;;;;;1.60;0.38;;;;;;;11.29;62.72;101984.84;6125411;29;20058;-76
2022/02/23 14:08:31;;;;;;;1.67;0.88;;;;;;;11.22;61.21;101969.34;6128298;28;20062;-80
2022/02/23 14:11:34;;;;;;;1.85;0.30;;;;;;;11.03;59.43;101972.63;6126222;29;20052;-79
2022/02/23 14:14:41;;;;;;;0.30;0.30;;;;;;;11.24;59.74;101952.59;6120209;29;20044;-77